sensor_id;sensor_type;location;lat;lon;timestamp;pressure;altitude;pressure_sealevel;temperature;humidity
54876;BME280;40764;48.472;8.166;2023-06-05T00:01:07;98264.72;;;13.17;68.03
54876;BME280;40764;48.472;8.166;2023-06-05T00:07:09;98262.91;;;12.99;68.50
54876;BME280;40764;48.472;8.166;2023-06-05T00:13:09;98267.78;;;13.02;68.23
54876;BME280;40764;48.472;8.166;2023-06-05T00:19:10;98270.91;;;12.73;69.02
54876;BME280;40764;48.472;8.166;2023-06-05T00:25:10;98257.53;;;12.94;67.94
54876;BME280;40764;48.472;8.166;2023-06-05T00:31:11;98258.94;;;12.55;70.31
54876;BME280;40764;48.472;8.166;2023-06-05T00:37:44;98255.28;;;12.74;69.06
54876;BME280;40764;48.472;8.166;2023-06-05T00:43:52;98253.56;;;12.50;70.05
54876;BME280;40764;48.472;8.166;2023-06-05T00:49:53;98248.56;;;12.66;68.62
54876;BME280;40764;48.472;8.166;2023-06-05T00:55:54;98252.44;;;12.51;69.85
54876;BME280;40764;48.472;8.166;2023-06-05T01:01:54;98250.31;;;12.34;70.01
54876;BME280;40764;48.472;8.166;2023-06-05T01:07:55;98258.94;;;12.41;69.80
54876;BME280;40764;48.472;8.166;2023-06-05T01:14:16;98253.78;;;12.26;70.73
54876;BME280;40764;48.472;8.166;2023-06-05T01:20:21;98254.38;;;12.09;71.87
54876;BME280;40764;48.472;8.166;2023-06-05T01:26:27;98248.53;;;12.16;71.69
54876;BME280;40764;48.472;8.166;2023-06-05T01:38:50;98245.16;;;11.92;71.77
54876;BME280;40764;48.472;8.166;2023-06-05T01:44:51;98234.31;;;11.68;73.98
54876;BME280;40764;48.472;8.166;2023-06-05T01:50:55;98240.41;;;11.65;73.74
54876;BME280;40764;48.472;8.166;2023-06-05T01:56:55;98247.25;;;11.48;74.96
54876;BME280;40764;48.472;8.166;2023-06-05T02:02:56;98245.59;;;11.66;73.62
54876;BME280;40764;48.472;8.166;2023-06-05T02:08:57;98238.19;;;11.67;73.79
54876;BME280;40764;48.472;8.166;2023-06-05T02:14:57;98245.97;;;11.60;73.46
54876;BME280;40764;48.472;8.166;2023-06-05T02:20:57;98240.75;;;11.44;74.62
54876;BME280;40764;48.472;8.166;2023-06-05T02:26:58;98242.59;;;11.49;74.39
54876;BME280;40764;48.472;8.166;2023-06-05T02:32:58;98245.91;;;11.32;74.78
54876;BME280;40764;48.472;8.166;2023-06-05T02:39:01;98239.75;;;11.22;75.28
54876;BME280;40764;48.472;8.166;2023-06-05T02:45:04;98235.78;;;11.46;73.66
54876;BME280;40764;48.472;8.166;2023-06-05T02:51:04;98245.72;;;11.42;74.34
54876;BME280;40764;48.472;8.166;2023-06-05T02:57:06;98230.31;;;11.14;75.39
54876;BME280;40764;48.472;8.166;2023-06-05T03:03:08;98229.53;;;11.27;75.16
54876;BME280;40764;48.472;8.166;2023-06-05T03:09:08;98236.13;;;11.26;74.25
54876;BME280;40764;48.472;8.166;2023-06-05T03:15:09;98238.47;;;11.00;76.09
54876;BME280;40764;48.472;8.166;2023-06-05T03:21:11;98243.47;;;10.93;77.24
54876;BME280;40764;48.472;8.166;2023-06-05T03:27:11;98244.25;;;10.99;76.54
54876;BME280;40764;48.472;8.166;2023-06-05T03:33:13;98252.06;;;10.86;77.26
54876;BME280;40764;48.472;8.166;2023-06-05T03:39:14;98248.34;;;10.96;76.65
54876;BME280;40764;48.472;8.166;2023-06-05T03:45:14;98247.91;;;10.89;77.17
54876;BME280;40764;48.472;8.166;2023-06-05T03:51:15;98257.91;;;10.99;76.75
54876;BME280;40764;48.472;8.166;2023-06-05T03:57:19;98258.44;;;11.01;77.09
54876;BME280;40764;48.472;8.166;2023-06-05T04:03:20;98253.81;;;11.15;76.41
54876;BME280;40764;48.472;8.166;2023-06-05T04:09:21;98269.94;;;10.98;77.45
54876;BME280;40764;48.472;8.166;2023-06-05T04:15:24;98266.19;;;10.94;78.13
54876;BME280;40764;48.472;8.166;2023-06-05T04:21:25;98269.00;;;10.89;78.83
54876;BME280;40764;48.472;8.166;2023-06-05T04:27:25;98268.63;;;10.95;79.06
54876;BME280;40764;48.472;8.166;2023-06-05T04:33:29;98268.59;;;11.33;77.94
54876;BME280;40764;48.472;8.166;2023-06-05T04:39:29;98268.50;;;11.38;77.86
54876;BME280;40764;48.472;8.166;2023-06-05T04:45:30;98272.28;;;11.42;78.97
54876;BME280;40764;48.472;8.166;2023-06-05T04:51:30;98266.25;;;11.59;79.03
54876;BME280;40764;48.472;8.166;2023-06-05T04:57:34;98272.84;;;11.90;77.71
54876;BME280;40764;48.472;8.166;2023-06-05T05:03:35;98269.91;;;12.14;76.06
54876;BME280;40764;48.472;8.166;2023-06-05T05:09:35;98277.13;;;12.24;77.29
54876;BME280;40764;48.472;8.166;2023-06-05T05:15:36;98266.25;;;12.32;78.01
54876;BME280;40764;48.472;8.166;2023-06-05T05:21:36;98267.75;;;12.66;76.97
54876;BME280;40764;48.472;8.166;2023-06-05T05:27:37;98262.22;;;12.93;76.59
54876;BME280;40764;48.472;8.166;2023-06-05T05:33:37;98260.03;;;13.18;75.67
54876;BME280;40764;48.472;8.166;2023-06-05T05:39:38;98261.34;;;13.43;74.87
54876;BME280;40764;48.472;8.166;2023-06-05T05:45:38;98269.31;;;13.75;73.54
54876;BME280;40764;48.472;8.166;2023-06-05T05:51:40;98265.28;;;14.04;71.85
54876;BME280;40764;48.472;8.166;2023-06-05T05:57:40;98269.94;;;14.34;70.11
54876;BME280;40764;48.472;8.166;2023-06-05T06:03:40;98264.88;;;14.67;68.63
54876;BME280;40764;48.472;8.166;2023-06-05T06:09:41;98260.25;;;15.11;68.00
54876;BME280;40764;48.472;8.166;2023-06-05T06:15:42;98250.50;;;15.48;65.39
54876;BME280;40764;48.472;8.166;2023-06-05T06:21:42;98254.19;;;15.87;64.60
54876;BME280;40764;48.472;8.166;2023-06-05T06:27:43;98259.47;;;16.09;62.52
54876;BME280;40764;48.472;8.166;2023-06-05T06:33:46;98255.94;;;16.38;62.06
54876;BME280;40764;48.472;8.166;2023-06-05T06:39:46;98261.66;;;16.62;60.62
54876;BME280;40764;48.472;8.166;2023-06-05T06:45:46;98263.50;;;16.88;59.03
54876;BME280;40764;48.472;8.166;2023-06-05T06:51:47;98260.34;;;17.19;56.48
54876;BME280;40764;48.472;8.166;2023-06-05T06:57:47;98252.91;;;17.52;57.39
54876;BME280;40764;48.472;8.166;2023-06-05T07:03:47;98250.72;;;17.79;57.94
54876;BME280;40764;48.472;8.166;2023-06-05T07:09:49;98246.97;;;17.95;56.50
54876;BME280;40764;48.472;8.166;2023-06-05T07:15:53;98245.38;;;18.19;56.62
54876;BME280;40764;48.472;8.166;2023-06-05T07:21:57;98252.56;;;18.56;54.54
54876;BME280;40764;48.472;8.166;2023-06-05T07:27:58;98242.97;;;18.91;53.75
54876;BME280;40764;48.472;8.166;2023-06-05T07:33:59;98244.19;;;19.17;49.95
54876;BME280;40764;48.472;8.166;2023-06-05T07:40:00;98232.44;;;19.36;49.14
54876;BME280;40764;48.472;8.166;2023-06-05T07:46:00;98230.72;;;19.44;49.55
54876;BME280;40764;48.472;8.166;2023-06-05T07:52:01;98240.63;;;19.45;48.82
54876;BME280;40764;48.472;8.166;2023-06-05T07:58:01;98235.16;;;19.61;47.51
54876;BME280;40764;48.472;8.166;2023-06-05T08:04:06;98225.72;;;19.77;47.96
54876;BME280;40764;48.472;8.166;2023-06-05T08:10:08;98226.44;;;19.90;49.29
54876;BME280;40764;48.472;8.166;2023-06-05T08:16:08;98228.16;;;20.10;48.15
54876;BME280;40764;48.472;8.166;2023-06-05T08:22:09;98221.00;;;20.09;47.97
54876;BME280;40764;48.472;8.166;2023-06-05T08:28:09;98232.19;;;20.13;47.50
54876;BME280;40764;48.472;8.166;2023-06-05T08:34:10;98227.13;;;20.31;48.55
54876;BME280;40764;48.472;8.166;2023-06-05T08:40:11;98209.66;;;20.30;47.79
54876;BME280;40764;48.472;8.166;2023-06-05T08:46:13;98209.81;;;20.69;47.77
54876;BME280;40764;48.472;8.166;2023-06-05T08:52:13;98216.41;;;20.80;48.32
54876;BME280;40764;48.472;8.166;2023-06-05T08:58:14;98216.81;;;20.63;47.47
54876;BME280;40764;48.472;8.166;2023-06-05T09:04:15;98211.09;;;21.10;48.46
54876;BME280;40764;48.472;8.166;2023-06-05T09:10:26;98206.88;;;21.16;47.61
54876;BME280;40764;48.472;8.166;2023-06-05T09:22:33;98214.50;;;21.39;46.60
54876;BME280;40764;48.472;8.166;2023-06-05T09:28:34;98201.84;;;21.60;46.24
54876;BME280;40764;48.472;8.166;2023-06-05T09:34:37;98201.47;;;21.62;46.20
54876;BME280;40764;48.472;8.166;2023-06-05T09:40:38;98204.91;;;21.75;44.87
54876;BME280;40764;48.472;8.166;2023-06-05T09:52:56;98205.00;;;22.01;43.63
54876;BME280;40764;48.472;8.166;2023-06-05T09:58:57;98199.63;;;22.12;44.75
54876;BME280;40764;48.472;8.166;2023-06-05T10:05:03;98195.84;;;22.23;44.50
54876;BME280;40764;48.472;8.166;2023-06-05T10:11:08;98200.81;;;22.34;44.45
54876;BME280;40764;48.472;8.166;2023-06-05T10:17:11;98198.44;;;22.36;44.35
54876;BME280;40764;48.472;8.166;2023-06-05T10:23:15;98195.88;;;22.50;44.37
54876;BME280;40764;48.472;8.166;2023-06-05T10:35:53;98194.41;;;22.82;43.32
54876;BME280;40764;48.472;8.166;2023-06-05T10:42:01;98189.88;;;22.74;43.41
54876;BME280;40764;48.472;8.166;2023-06-05T10:48:01;98175.09;;;22.97;43.75
54876;BME280;40764;48.472;8.166;2023-06-05T10:54:02;98181.84;;;23.26;42.41
54876;BME280;40764;48.472;8.166;2023-06-05T11:00:06;98172.53;;;23.44;41.88
54876;BME280;40764;48.472;8.166;2023-06-05T11:06:12;98151.75;;;23.72;41.31
54876;BME280;40764;48.472;8.166;2023-06-05T11:18:43;98145.38;;;23.75;39.99
54876;BME280;40764;48.472;8.166;2023-06-05T11:31:27;98151.03;;;24.85;37.39
54876;BME280;40764;48.472;8.166;2023-06-05T11:37:28;98138.06;;;25.24;37.04
54876;BME280;40764;48.472;8.166;2023-06-05T11:43:28;98131.53;;;24.95;36.77
54876;BME280;40764;48.472;8.166;2023-06-05T11:56:12;98114.69;;;24.85;35.27
54876;BME280;40764;48.472;8.166;2023-06-05T12:02:12;98126.19;;;24.69;37.35
54876;BME280;40764;48.472;8.166;2023-06-05T12:08:22;98120.25;;;25.82;36.12
54876;BME280;40764;48.472;8.166;2023-06-05T12:14:32;98113.44;;;25.87;33.75
54876;BME280;40764;48.472;8.166;2023-06-05T12:20:38;98108.66;;;26.09;32.95
54876;BME280;40764;48.472;8.166;2023-06-05T12:27:04;98106.28;;;26.04;35.55
54876;BME280;40764;48.472;8.166;2023-06-05T12:33:06;98095.38;;;25.45;36.99
54876;BME280;40764;48.472;8.166;2023-06-05T12:39:10;98086.13;;;25.23;36.18
54876;BME280;40764;48.472;8.166;2023-06-05T12:51:54;98078.59;;;26.63;34.19
54876;BME280;40764;48.472;8.166;2023-06-05T12:58:09;98072.47;;;27.03;35.82
54876;BME280;40764;48.472;8.166;2023-06-05T13:04:09;98066.50;;;26.83;36.77
54876;BME280;40764;48.472;8.166;2023-06-05T13:10:10;98066.09;;;27.65;36.03
54876;BME280;40764;48.472;8.166;2023-06-05T13:16:11;98059.25;;;27.04;36.77
54876;BME280;40764;48.472;8.166;2023-06-05T13:22:23;98041.63;;;28.14;36.75
54876;BME280;40764;48.472;8.166;2023-06-05T13:28:35;98048.69;;;27.88;34.94
54876;BME280;40764;48.472;8.166;2023-06-05T13:34:36;98045.63;;;27.02;33.54
54876;BME280;40764;48.472;8.166;2023-06-05T13:40:36;98045.44;;;27.34;36.48
54876;BME280;40764;48.472;8.166;2023-06-05T13:46:37;98039.94;;;27.13;33.80
54876;BME280;40764;48.472;8.166;2023-06-05T13:52:37;98036.75;;;27.11;33.32
54876;BME280;40764;48.472;8.166;2023-06-05T13:58:37;98024.81;;;28.52;33.84
54876;BME280;40764;48.472;8.166;2023-06-05T14:04:38;98025.06;;;29.29;32.64
54876;BME280;40764;48.472;8.166;2023-06-05T14:10:38;98013.41;;;29.00;29.84
54876;BME280;40764;48.472;8.166;2023-06-05T14:16:39;98006.06;;;29.87;29.56
54876;BME280;40764;48.472;8.166;2023-06-05T14:22:40;97995.72;;;31.06;28.84
54876;BME280;40764;48.472;8.166;2023-06-05T14:28:41;97992.56;;;30.85;27.38
54876;BME280;40764;48.472;8.166;2023-06-05T14:34:41;97999.72;;;30.89;27.95
54876;BME280;40764;48.472;8.166;2023-06-05T14:40:41;98006.66;;;28.94;29.38
54876;BME280;40764;48.472;8.166;2023-06-05T14:46:42;98006.69;;;27.74;32.20
54876;BME280;40764;48.472;8.166;2023-06-05T14:52:42;98005.56;;;27.02;31.67
54876;BME280;40764;48.472;8.166;2023-06-05T14:58:43;98001.59;;;26.92;33.33
54876;BME280;40764;48.472;8.166;2023-06-05T15:04:43;97999.63;;;26.82;32.52
54876;BME280;40764;48.472;8.166;2023-06-05T15:10:43;98000.97;;;26.45;35.08
54876;BME280;40764;48.472;8.166;2023-06-05T15:16:44;97995.72;;;26.54;34.09
54876;BME280;40764;48.472;8.166;2023-06-05T15:22:48;97988.06;;;26.69;33.96
54876;BME280;40764;48.472;8.166;2023-06-05T15:28:49;97985.53;;;26.96;34.69
54876;BME280;40764;48.472;8.166;2023-06-05T15:34:49;97979.41;;;28.87;29.82
54876;BME280;40764;48.472;8.166;2023-06-05T15:40:50;97967.84;;;29.63;27.81
54876;BME280;40764;48.472;8.166;2023-06-05T15:46:50;97975.78;;;30.38;27.32
54876;BME280;40764;48.472;8.166;2023-06-05T15:53:00;97974.53;;;30.98;26.64
54876;BME280;40764;48.472;8.166;2023-06-05T15:59:02;97973.00;;;30.34;28.83
54876;BME280;40764;48.472;8.166;2023-06-05T16:05:03;97963.34;;;28.54;28.39
54876;BME280;40764;48.472;8.166;2023-06-05T16:11:03;97972.56;;;27.75;29.17
54876;BME280;40764;48.472;8.166;2023-06-05T16:17:05;97970.69;;;27.58;32.67
54876;BME280;40764;48.472;8.166;2023-06-05T16:23:05;97967.34;;;27.26;31.51
54876;BME280;40764;48.472;8.166;2023-06-05T16:29:08;97972.81;;;26.74;30.37
54876;BME280;40764;48.472;8.166;2023-06-05T16:35:10;97964.16;;;27.24;30.09
54876;BME280;40764;48.472;8.166;2023-06-05T16:41:10;97963.81;;;27.18;31.20
54876;BME280;40764;48.472;8.166;2023-06-05T16:47:10;97961.88;;;28.42;28.75
54876;BME280;40764;48.472;8.166;2023-06-05T16:53:13;97960.75;;;29.54;27.12
54876;BME280;40764;48.472;8.166;2023-06-05T16:59:14;97971.59;;;29.56;26.89
54876;BME280;40764;48.472;8.166;2023-06-05T17:05:19;97975.75;;;29.95;25.58
54876;BME280;40764;48.472;8.166;2023-06-05T17:11:19;97983.75;;;29.96;24.80
54876;BME280;40764;48.472;8.166;2023-06-05T17:17:20;97995.97;;;30.13;24.32
54876;BME280;40764;48.472;8.166;2023-06-05T17:23:21;98000.81;;;30.12;24.91
54876;BME280;40764;48.472;8.166;2023-06-05T17:29:30;98004.22;;;29.77;24.87
54876;BME280;40764;48.472;8.166;2023-06-05T17:35:34;98009.28;;;29.35;25.21
54876;BME280;40764;48.472;8.166;2023-06-05T17:41:35;98009.91;;;29.50;25.76
54876;BME280;40764;48.472;8.166;2023-06-05T17:47:35;98009.69;;;29.07;24.61
54876;BME280;40764;48.472;8.166;2023-06-05T17:53:36;98011.19;;;28.50;24.09
54876;BME280;40764;48.472;8.166;2023-06-05T17:59:36;98023.63;;;28.83;23.80
54876;BME280;40764;48.472;8.166;2023-06-05T18:05:36;98024.09;;;29.66;24.80
54876;BME280;40764;48.472;8.166;2023-06-05T18:11:41;98025.63;;;30.21;22.95
54876;BME280;40764;48.472;8.166;2023-06-05T18:17:53;98032.66;;;29.86;22.77
54876;BME280;40764;48.472;8.166;2023-06-05T18:23:53;98023.13;;;29.76;22.89
54876;BME280;40764;48.472;8.166;2023-06-05T18:29:53;98036.44;;;29.18;24.36
54876;BME280;40764;48.472;8.166;2023-06-05T18:35:54;98026.28;;;28.22;26.10
54876;BME280;40764;48.472;8.166;2023-06-05T18:41:55;98027.06;;;25.68;30.67
54876;BME280;40764;48.472;8.166;2023-06-05T18:48:04;98039.47;;;24.55;30.20
54876;BME280;40764;48.472;8.166;2023-06-05T18:54:05;98050.72;;;24.03;33.48
54876;BME280;40764;48.472;8.166;2023-06-05T19:00:07;98047.97;;;23.59;35.83
54876;BME280;40764;48.472;8.166;2023-06-05T19:06:07;98058.59;;;22.49;39.48
54876;BME280;40764;48.472;8.166;2023-06-05T19:12:08;98062.88;;;21.90;39.60
54876;BME280;40764;48.472;8.166;2023-06-05T19:18:08;98067.94;;;21.16;43.58
54876;BME280;40764;48.472;8.166;2023-06-05T19:24:09;98061.88;;;20.72;43.71
54876;BME280;40764;48.472;8.166;2023-06-05T19:30:10;98071.59;;;20.27;45.19
54876;BME280;40764;48.472;8.166;2023-06-05T19:36:13;98076.53;;;19.67;46.41
54876;BME280;40764;48.472;8.166;2023-06-05T19:42:14;98086.19;;;19.14;47.41
54876;BME280;40764;48.472;8.166;2023-06-05T19:48:14;98095.66;;;19.13;47.17
54876;BME280;40764;48.472;8.166;2023-06-05T19:54:15;98103.78;;;18.66;49.00
54876;BME280;40764;48.472;8.166;2023-06-05T20:00:16;98115.00;;;18.33;49.45
54876;BME280;40764;48.472;8.166;2023-06-05T20:06:17;98125.88;;;18.25;50.43
54876;BME280;40764;48.472;8.166;2023-06-05T20:12:25;98124.94;;;17.73;51.95
54876;BME280;40764;48.472;8.166;2023-06-05T20:18:25;98128.78;;;17.47;51.42
54876;BME280;40764;48.472;8.166;2023-06-05T20:24:25;98134.06;;;17.40;52.19
54876;BME280;40764;48.472;8.166;2023-06-05T20:30:26;98137.28;;;17.09;53.81
54876;BME280;40764;48.472;8.166;2023-06-05T20:36:28;98136.25;;;16.81;53.72
54876;BME280;40764;48.472;8.166;2023-06-05T20:42:30;98141.97;;;16.46;55.43
54876;BME280;40764;48.472;8.166;2023-06-05T20:48:31;98141.22;;;16.37;55.52
54876;BME280;40764;48.472;8.166;2023-06-05T20:54:31;98133.91;;;16.11;56.99
54876;BME280;40764;48.472;8.166;2023-06-05T21:00:31;98140.34;;;16.24;55.79
54876;BME280;40764;48.472;8.166;2023-06-05T21:06:32;98142.78;;;15.88;57.98
54876;BME280;40764;48.472;8.166;2023-06-05T21:12:32;98141.88;;;15.75;57.96
54876;BME280;40764;48.472;8.166;2023-06-05T21:18:33;98138.31;;;15.74;57.97
54876;BME280;40764;48.472;8.166;2023-06-05T21:24:41;98138.69;;;15.64;58.38
54876;BME280;40764;48.472;8.166;2023-06-05T21:30:42;98136.41;;;15.58;59.59
54876;BME280;40764;48.472;8.166;2023-06-05T21:36:42;98131.47;;;15.34;59.80
54876;BME280;40764;48.472;8.166;2023-06-05T21:42:58;98140.84;;;15.41;58.97
54876;BME280;40764;48.472;8.166;2023-06-05T21:48:59;98136.38;;;15.11;60.17
54876;BME280;40764;48.472;8.166;2023-06-05T21:54:59;98139.31;;;15.06;60.52
54876;BME280;40764;48.472;8.166;2023-06-05T22:01:00;98146.09;;;14.82;61.31
54876;BME280;40764;48.472;8.166;2023-06-05T22:07:01;98143.50;;;14.86;60.54
54876;BME280;40764;48.472;8.166;2023-06-05T22:13:02;98150.31;;;14.88;60.56
54876;BME280;40764;48.472;8.166;2023-06-05T22:19:06;98155.78;;;14.45;62.74
54876;BME280;40764;48.472;8.166;2023-06-05T22:25:07;98151.72;;;14.43;62.56
54876;BME280;40764;48.472;8.166;2023-06-05T22:31:09;98159.13;;;14.42;62.35
54876;BME280;40764;48.472;8.166;2023-06-05T22:37:09;98160.56;;;14.22;63.44
54876;BME280;40764;48.472;8.166;2023-06-05T22:43:11;98155.72;;;14.19;63.81
54876;BME280;40764;48.472;8.166;2023-06-05T22:49:11;98161.31;;;14.06;64.31
54876;BME280;40764;48.472;8.166;2023-06-05T22:55:12;98158.91;;;14.13;64.38
54876;BME280;40764;48.472;8.166;2023-06-05T23:01:12;98150.50;;;14.01;65.67
54876;BME280;40764;48.472;8.166;2023-06-05T23:07:17;98160.91;;;13.81;65.39
54876;BME280;40764;48.472;8.166;2023-06-05T23:13:18;98152.81;;;13.76;66.57
54876;BME280;40764;48.472;8.166;2023-06-05T23:19:21;98154.91;;;13.71;66.01
54876;BME280;40764;48.472;8.166;2023-06-05T23:25:21;98160.78;;;13.55;67.29
54876;BME280;40764;48.472;8.166;2023-06-05T23:31:25;98159.31;;;13.49;67.17
54876;BME280;40764;48.472;8.166;2023-06-05T23:37:25;98149.41;;;13.40;67.92
54876;BME280;40764;48.472;8.166;2023-06-05T23:43:26;98157.47;;;13.67;67.34
54876;BME280;40764;48.472;8.166;2023-06-05T23:49:26;98151.53;;;13.82;65.91
54876;BME280;40764;48.472;8.166;2023-06-05T23:55:39;98153.56;;;13.59;67.37
